sensor_id;sensor_type;location;lat;lon;timestamp;P1;durP1;ratioP1;P2;durP2;ratioP2
24044;SDS011;26257;49.442;8.422;2022-10-26T00:01:18;10.98;;;6.00;;
24044;SDS011;26257;49.442;8.422;2022-10-26T00:03:44;12.35;;;7.10;;
24044;SDS011;26257;49.442;8.422;2022-10-26T00:06:14;14.18;;;7.13;;
24044;SDS011;26257;49.442;8.422;2022-10-26T00:08:41;14.13;;;6.75;;
24044;SDS011;26257;49.442;8.422;2022-10-26T00:11:07;14.50;;;7.03;;
24044;SDS011;26257;49.442;8.422;2022-10-26T00:13:33;12.52;;;6.53;;
24044;SDS011;26257;49.442;8.422;2022-10-26T00:15:59;13.40;;;6.78;;
24044;SDS011;26257;49.442;8.422;2022-10-26T00:18:25;14.75;;;6.65;;
24044;SDS011;26257;49.442;8.422;2022-10-26T00:20:51;13.48;;;6.47;;
24044;SDS011;26257;49.442;8.422;2022-10-26T00:23:16;13.40;;;6.00;;
24044;SDS011;26257;49.442;8.422;2022-10-26T00:25:42;11.73;;;5.90;;
24044;SDS011;26257;49.442;8.422;2022-10-26T00:28:08;13.32;;;6.07;;
24044;SDS011;26257;49.442;8.422;2022-10-26T00:30:33;12.63;;;6.05;;
24044;SDS011;26257;49.442;8.422;2022-10-26T00:33:02;12.85;;;6.65;;
24044;SDS011;26257;49.442;8.422;2022-10-26T00:35:27;10.95;;;6.63;;
24044;SDS011;26257;49.442;8.422;2022-10-26T00:37:53;12.48;;;6.38;;
24044;SDS011;26257;49.442;8.422;2022-10-26T00:40:20;12.77;;;6.22;;
24044;SDS011;26257;49.442;8.422;2022-10-26T00:42:46;14.45;;;5.95;;
24044;SDS011;26257;49.442;8.422;2022-10-26T00:45:17;12.65;;;6.32;;
24044;SDS011;26257;49.442;8.422;2022-10-26T00:47:54;16.30;;;6.65;;
24044;SDS011;26257;49.442;8.422;2022-10-26T00:50:42;15.43;;;6.65;;
24044;SDS011;26257;49.442;8.422;2022-10-26T00:53:10;11.85;;;6.18;;
24044;SDS011;26257;49.442;8.422;2022-10-26T00:55:38;11.90;;;6.88;;
24044;SDS011;26257;49.442;8.422;2022-10-26T00:58:10;15.32;;;6.75;;
24044;SDS011;26257;49.442;8.422;2022-10-26T01:00:36;11.82;;;6.30;;
24044;SDS011;26257;49.442;8.422;2022-10-26T01:03:03;13.63;;;5.70;;
24044;SDS011;26257;49.442;8.422;2022-10-26T01:05:31;15.70;;;6.82;;
24044;SDS011;26257;49.442;8.422;2022-10-26T01:07:59;13.75;;;6.45;;
24044;SDS011;26257;49.442;8.422;2022-10-26T01:10:25;16.42;;;6.75;;
24044;SDS011;26257;49.442;8.422;2022-10-26T01:12:52;16.98;;;7.50;;
24044;SDS011;26257;49.442;8.422;2022-10-26T01:15:22;13.27;;;6.90;;
24044;SDS011;26257;49.442;8.422;2022-10-26T01:18:05;13.15;;;6.45;;
24044;SDS011;26257;49.442;8.422;2022-10-26T01:31:28;13.38;;;7.18;;
24044;SDS011;26257;49.442;8.422;2022-10-26T01:34:05;12.02;;;6.80;;
24044;SDS011;26257;49.442;8.422;2022-10-26T01:37:03;12.88;;;6.90;;
24044;SDS011;26257;49.442;8.422;2022-10-26T01:39:35;12.45;;;6.65;;
24044;SDS011;26257;49.442;8.422;2022-10-26T01:42:05;14.77;;;6.63;;
24044;SDS011;26257;49.442;8.422;2022-10-26T01:44:35;14.35;;;6.88;;
24044;SDS011;26257;49.442;8.422;2022-10-26T01:47:11;15.70;;;6.80;;
24044;SDS011;26257;49.442;8.422;2022-10-26T01:49:43;14.88;;;6.40;;
24044;SDS011;26257;49.442;8.422;2022-10-26T01:52:13;14.70;;;7.25;;
24044;SDS011;26257;49.442;8.422;2022-10-26T01:54:39;13.10;;;6.25;;
24044;SDS011;26257;49.442;8.422;2022-10-26T01:57:06;17.42;;;7.70;;
24044;SDS011;26257;49.442;8.422;2022-10-26T02:15:53;11.73;;;6.78;;
24044;SDS011;26257;49.442;8.422;2022-10-26T02:21:19;12.93;;;6.15;;
24044;SDS011;26257;49.442;8.422;2022-10-26T02:23:50;14.18;;;6.57;;
24044;SDS011;26257;49.442;8.422;2022-10-26T02:26:21;15.38;;;6.90;;
24044;SDS011;26257;49.442;8.422;2022-10-26T02:28:51;15.55;;;6.22;;
24044;SDS011;26257;49.442;8.422;2022-10-26T02:31:20;14.13;;;6.93;;
24044;SDS011;26257;49.442;8.422;2022-10-26T02:33:48;14.50;;;7.18;;
24044;SDS011;26257;49.442;8.422;2022-10-26T02:36:18;15.43;;;6.57;;
24044;SDS011;26257;49.442;8.422;2022-10-26T02:38:49;15.98;;;8.00;;
24044;SDS011;26257;49.442;8.422;2022-10-26T02:41:17;13.50;;;7.13;;
24044;SDS011;26257;49.442;8.422;2022-10-26T02:43:45;14.20;;;7.20;;
24044;SDS011;26257;49.442;8.422;2022-10-26T02:46:16;11.80;;;6.78;;
24044;SDS011;26257;49.442;8.422;2022-10-26T03:09:11;15.98;;;7.15;;
24044;SDS011;26257;49.442;8.422;2022-10-26T03:11:36;16.65;;;7.93;;
24044;SDS011;26257;49.442;8.422;2022-10-26T03:14:01;13.95;;;8.05;;
24044;SDS011;26257;49.442;8.422;2022-10-26T03:16:27;16.98;;;6.63;;
24044;SDS011;26257;49.442;8.422;2022-10-26T03:18:52;14.27;;;7.30;;
24044;SDS011;26257;49.442;8.422;2022-10-26T03:21:18;14.75;;;7.07;;
24044;SDS011;26257;49.442;8.422;2022-10-26T03:23:43;11.70;;;7.10;;
24044;SDS011;26257;49.442;8.422;2022-10-26T03:26:10;15.38;;;6.97;;
24044;SDS011;26257;49.442;8.422;2022-10-26T03:28:35;13.65;;;7.55;;
24044;SDS011;26257;49.442;8.422;2022-10-26T03:31:01;13.93;;;6.72;;
24044;SDS011;26257;49.442;8.422;2022-10-26T03:33:26;13.00;;;7.20;;
24044;SDS011;26257;49.442;8.422;2022-10-26T03:35:55;17.65;;;8.07;;
24044;SDS011;26257;49.442;8.422;2022-10-26T03:38:23;18.55;;;6.50;;
24044;SDS011;26257;49.442;8.422;2022-10-26T03:40:48;17.88;;;7.03;;
24044;SDS011;26257;49.442;8.422;2022-10-26T03:43:14;15.95;;;7.38;;
24044;SDS011;26257;49.442;8.422;2022-10-26T03:45:39;18.73;;;7.28;;
24044;SDS011;26257;49.442;8.422;2022-10-26T03:48:05;19.00;;;7.65;;
24044;SDS011;26257;49.442;8.422;2022-10-26T03:50:30;20.40;;;7.15;;
24044;SDS011;26257;49.442;8.422;2022-10-26T03:52:56;12.80;;;6.68;;
24044;SDS011;26257;49.442;8.422;2022-10-26T03:55:21;12.80;;;7.05;;
24044;SDS011;26257;49.442;8.422;2022-10-26T03:57:46;14.63;;;7.25;;
24044;SDS011;26257;49.442;8.422;2022-10-26T04:00:12;15.23;;;7.25;;
24044;SDS011;26257;49.442;8.422;2022-10-26T04:02:39;18.23;;;6.88;;
24044;SDS011;26257;49.442;8.422;2022-10-26T04:05:06;14.48;;;6.30;;
24044;SDS011;26257;49.442;8.422;2022-10-26T04:07:32;11.95;;;6.38;;
24044;SDS011;26257;49.442;8.422;2022-10-26T04:09:58;14.45;;;7.00;;
24044;SDS011;26257;49.442;8.422;2022-10-26T04:12:23;12.30;;;6.25;;
24044;SDS011;26257;49.442;8.422;2022-10-26T04:14:48;18.35;;;7.22;;
24044;SDS011;26257;49.442;8.422;2022-10-26T04:17:14;12.07;;;5.35;;
24044;SDS011;26257;49.442;8.422;2022-10-26T04:19:39;9.98;;;5.78;;
24044;SDS011;26257;49.442;8.422;2022-10-26T04:22:05;14.13;;;6.10;;
24044;SDS011;26257;49.442;8.422;2022-10-26T04:24:30;12.80;;;5.53;;
24044;SDS011;26257;49.442;8.422;2022-10-26T04:26:56;9.80;;;4.88;;
24044;SDS011;26257;49.442;8.422;2022-10-26T04:29:21;14.80;;;5.25;;
24044;SDS011;26257;49.442;8.422;2022-10-26T04:31:46;12.55;;;5.65;;
24044;SDS011;26257;49.442;8.422;2022-10-26T04:34:12;14.02;;;5.47;;
24044;SDS011;26257;49.442;8.422;2022-10-26T04:36:37;13.30;;;6.57;;
24044;SDS011;26257;49.442;8.422;2022-10-26T04:39:03;9.57;;;4.95;;
24044;SDS011;26257;49.442;8.422;2022-10-26T04:41:28;8.13;;;3.83;;
24044;SDS011;26257;49.442;8.422;2022-10-26T04:43:53;11.65;;;4.97;;
24044;SDS011;26257;49.442;8.422;2022-10-26T04:46:19;8.32;;;4.30;;
24044;SDS011;26257;49.442;8.422;2022-10-26T04:48:46;10.23;;;4.70;;
24044;SDS011;26257;49.442;8.422;2022-10-26T04:51:12;8.80;;;4.82;;
24044;SDS011;26257;49.442;8.422;2022-10-26T04:53:37;7.68;;;4.35;;
24044;SDS011;26257;49.442;8.422;2022-10-26T04:56:02;8.18;;;4.43;;
24044;SDS011;26257;49.442;8.422;2022-10-26T04:58:28;12.38;;;4.05;;
24044;SDS011;26257;49.442;8.422;2022-10-26T05:00:54;8.43;;;4.43;;
24044;SDS011;26257;49.442;8.422;2022-10-26T05:03:20;8.48;;;4.07;;
24044;SDS011;26257;49.442;8.422;2022-10-26T05:05:45;14.43;;;3.90;;
24044;SDS011;26257;49.442;8.422;2022-10-26T05:08:14;8.43;;;3.20;;
24044;SDS011;26257;49.442;8.422;2022-10-26T05:10:40;7.03;;;3.20;;
24044;SDS011;26257;49.442;8.422;2022-10-26T05:13:08;7.65;;;3.03;;
24044;SDS011;26257;49.442;8.422;2022-10-26T05:15:33;10.43;;;3.08;;
24044;SDS011;26257;49.442;8.422;2022-10-26T05:17:59;8.23;;;3.78;;
24044;SDS011;26257;49.442;8.422;2022-10-26T05:20:27;10.68;;;2.65;;
24044;SDS011;26257;49.442;8.422;2022-10-26T05:23:01;8.55;;;2.80;;
24044;SDS011;26257;49.442;8.422;2022-10-26T05:25:31;5.38;;;2.58;;
24044;SDS011;26257;49.442;8.422;2022-10-26T05:28:00;8.00;;;3.08;;
24044;SDS011;26257;49.442;8.422;2022-10-26T05:30:27;9.43;;;3.00;;
24044;SDS011;26257;49.442;8.422;2022-10-26T05:32:56;6.15;;;3.08;;
24044;SDS011;26257;49.442;8.422;2022-10-26T05:35:24;7.72;;;3.95;;
24044;SDS011;26257;49.442;8.422;2022-10-26T05:37:51;16.40;;;6.93;;
24044;SDS011;26257;49.442;8.422;2022-10-26T05:40:16;9.27;;;3.40;;
24044;SDS011;26257;49.442;8.422;2022-10-26T05:42:43;6.28;;;3.30;;
24044;SDS011;26257;49.442;8.422;2022-10-26T05:45:09;6.75;;;3.13;;
24044;SDS011;26257;49.442;8.422;2022-10-26T05:47:39;9.20;;;3.08;;
24044;SDS011;26257;49.442;8.422;2022-10-26T05:50:05;10.02;;;3.50;;
24044;SDS011;26257;49.442;8.422;2022-10-26T05:52:41;8.93;;;2.92;;
24044;SDS011;26257;49.442;8.422;2022-10-26T05:55:12;10.52;;;3.25;;
24044;SDS011;26257;49.442;8.422;2022-10-26T05:57:39;11.20;;;3.70;;
24044;SDS011;26257;49.442;8.422;2022-10-26T06:00:05;8.85;;;2.95;;
24044;SDS011;26257;49.442;8.422;2022-10-26T06:05:02;10.05;;;2.92;;
24044;SDS011;26257;49.442;8.422;2022-10-26T06:07:29;9.87;;;3.23;;
24044;SDS011;26257;49.442;8.422;2022-10-26T06:09:55;10.50;;;3.50;;
24044;SDS011;26257;49.442;8.422;2022-10-26T06:12:21;8.63;;;3.33;;
24044;SDS011;26257;49.442;8.422;2022-10-26T06:14:46;11.75;;;2.97;;
24044;SDS011;26257;49.442;8.422;2022-10-26T06:20:13;10.70;;;3.50;;
24044;SDS011;26257;49.442;8.422;2022-10-26T06:28:58;8.88;;;3.47;;
24044;SDS011;26257;49.442;8.422;2022-10-26T06:31:27;11.52;;;4.35;;
24044;SDS011;26257;49.442;8.422;2022-10-26T06:33:54;9.40;;;5.18;;
24044;SDS011;26257;49.442;8.422;2022-10-26T06:36:24;8.65;;;3.13;;
24044;SDS011;26257;49.442;8.422;2022-10-26T06:39:02;8.13;;;3.60;;
24044;SDS011;26257;49.442;8.422;2022-10-26T06:41:30;11.45;;;3.42;;
24044;SDS011;26257;49.442;8.422;2022-10-26T06:43:57;7.70;;;3.42;;
24044;SDS011;26257;49.442;8.422;2022-10-26T06:49:09;14.63;;;3.40;;
24044;SDS011;26257;49.442;8.422;2022-10-26T06:51:57;11.30;;;3.30;;
24044;SDS011;26257;49.442;8.422;2022-10-26T06:57:09;16.67;;;5.13;;
24044;SDS011;26257;49.442;8.422;2022-10-26T06:59:42;10.43;;;3.33;;
24044;SDS011;26257;49.442;8.422;2022-10-26T07:02:11;8.25;;;3.15;;
24044;SDS011;26257;49.442;8.422;2022-10-26T07:04:38;9.85;;;3.60;;
24044;SDS011;26257;49.442;8.422;2022-10-26T07:07:04;6.60;;;3.13;;
24044;SDS011;26257;49.442;8.422;2022-10-26T07:09:29;11.20;;;3.45;;
24044;SDS011;26257;49.442;8.422;2022-10-26T07:11:55;12.77;;;3.47;;
24044;SDS011;26257;49.442;8.422;2022-10-26T07:14:20;8.50;;;3.22;;
24044;SDS011;26257;49.442;8.422;2022-10-26T07:16:46;10.95;;;4.35;;
24044;SDS011;26257;49.442;8.422;2022-10-26T07:19:11;11.13;;;3.95;;
24044;SDS011;26257;49.442;8.422;2022-10-26T07:21:36;16.92;;;4.95;;
24044;SDS011;26257;49.442;8.422;2022-10-26T07:24:02;16.63;;;5.60;;
24044;SDS011;26257;49.442;8.422;2022-10-26T07:26:27;6.90;;;2.88;;
24044;SDS011;26257;49.442;8.422;2022-10-26T07:28:53;13.88;;;4.47;;
24044;SDS011;26257;49.442;8.422;2022-10-26T07:31:18;9.35;;;3.95;;
24044;SDS011;26257;49.442;8.422;2022-10-26T07:33:43;10.15;;;3.90;;
24044;SDS011;26257;49.442;8.422;2022-10-26T07:36:09;12.02;;;4.28;;
24044;SDS011;26257;49.442;8.422;2022-10-26T07:38:35;10.25;;;3.95;;
24044;SDS011;26257;49.442;8.422;2022-10-26T07:41:02;14.77;;;3.92;;
24044;SDS011;26257;49.442;8.422;2022-10-26T07:43:28;10.27;;;3.85;;
24044;SDS011;26257;49.442;8.422;2022-10-26T07:45:53;10.57;;;3.90;;
24044;SDS011;26257;49.442;8.422;2022-10-26T07:48:19;13.98;;;8.55;;
24044;SDS011;26257;49.442;8.422;2022-10-26T07:50:44;12.50;;;4.60;;
24044;SDS011;26257;49.442;8.422;2022-10-26T07:53:10;8.63;;;3.90;;
24044;SDS011;26257;49.442;8.422;2022-10-26T07:55:36;7.53;;;3.95;;
24044;SDS011;26257;49.442;8.422;2022-10-26T07:58:02;6.90;;;4.18;;
24044;SDS011;26257;49.442;8.422;2022-10-26T08:00:27;10.05;;;4.82;;
24044;SDS011;26257;49.442;8.422;2022-10-26T08:02:53;14.30;;;5.10;;
24044;SDS011;26257;49.442;8.422;2022-10-26T08:05:19;9.88;;;3.17;;
24044;SDS011;26257;49.442;8.422;2022-10-26T08:07:46;9.98;;;4.10;;
24044;SDS011;26257;49.442;8.422;2022-10-26T08:10:12;9.98;;;3.72;;
24044;SDS011;26257;49.442;8.422;2022-10-26T08:12:39;7.63;;;3.38;;
24044;SDS011;26257;49.442;8.422;2022-10-26T08:15:06;12.15;;;4.00;;
24044;SDS011;26257;49.442;8.422;2022-10-26T08:17:32;8.82;;;3.75;;
24044;SDS011;26257;49.442;8.422;2022-10-26T08:19:58;7.25;;;3.53;;
24044;SDS011;26257;49.442;8.422;2022-10-26T08:22:23;9.30;;;3.83;;
24044;SDS011;26257;49.442;8.422;2022-10-26T08:24:48;7.72;;;4.03;;
24044;SDS011;26257;49.442;8.422;2022-10-26T08:27:14;11.40;;;3.85;;
24044;SDS011;26257;49.442;8.422;2022-10-26T08:29:39;8.90;;;4.10;;
24044;SDS011;26257;49.442;8.422;2022-10-26T08:32:05;10.70;;;3.92;;
24044;SDS011;26257;49.442;8.422;2022-10-26T08:34:31;10.88;;;4.50;;
24044;SDS011;26257;49.442;8.422;2022-10-26T08:36:56;12.43;;;4.18;;
24044;SDS011;26257;49.442;8.422;2022-10-26T08:39:22;11.65;;;4.30;;
24044;SDS011;26257;49.442;8.422;2022-10-26T08:41:48;10.70;;;4.78;;
24044;SDS011;26257;49.442;8.422;2022-10-26T08:46:44;10.50;;;5.10;;
24044;SDS011;26257;49.442;8.422;2022-10-26T09:08:49;8.82;;;4.07;;
24044;SDS011;26257;49.442;8.422;2022-10-26T09:19:18;7.65;;;4.50;;
24044;SDS011;26257;49.442;8.422;2022-10-26T09:25:15;9.18;;;3.72;;
24044;SDS011;26257;49.442;8.422;2022-10-26T09:30:12;7.70;;;4.00;;
24044;SDS011;26257;49.442;8.422;2022-10-26T09:32:40;13.27;;;4.32;;
24044;SDS011;26257;49.442;8.422;2022-10-26T09:35:20;6.28;;;3.58;;
24044;SDS011;26257;49.442;8.422;2022-10-26T09:37:51;9.13;;;3.88;;
24044;SDS011;26257;49.442;8.422;2022-10-26T09:40:21;14.38;;;4.05;;
24044;SDS011;26257;49.442;8.422;2022-10-26T09:47:52;9.98;;;4.07;;
24044;SDS011;26257;49.442;8.422;2022-10-26T09:50:25;11.77;;;3.88;;
24044;SDS011;26257;49.442;8.422;2022-10-26T09:52:53;9.95;;;3.22;;
24044;SDS011;26257;49.442;8.422;2022-10-26T09:55:19;7.45;;;3.50;;
24044;SDS011;26257;49.442;8.422;2022-10-26T09:57:47;8.93;;;3.42;;
24044;SDS011;26257;49.442;8.422;2022-10-26T10:00:17;9.05;;;3.42;;
24044;SDS011;26257;49.442;8.422;2022-10-26T10:02:44;9.07;;;3.30;;
24044;SDS011;26257;49.442;8.422;2022-10-26T10:07:50;7.88;;;3.00;;
24044;SDS011;26257;49.442;8.422;2022-10-26T10:10:17;10.45;;;3.65;;
24044;SDS011;26257;49.442;8.422;2022-10-26T10:12:45;9.05;;;3.33;;
24044;SDS011;26257;49.442;8.422;2022-10-26T10:15:21;10.32;;;2.50;;
24044;SDS011;26257;49.442;8.422;2022-10-26T10:17:51;9.15;;;2.67;;
24044;SDS011;26257;49.442;8.422;2022-10-26T10:20:31;6.70;;;2.60;;
24044;SDS011;26257;49.442;8.422;2022-10-26T10:25:42;6.28;;;2.70;;
24044;SDS011;26257;49.442;8.422;2022-10-26T10:28:20;6.72;;;2.80;;
24044;SDS011;26257;49.442;8.422;2022-10-26T10:30:58;10.00;;;2.63;;
24044;SDS011;26257;49.442;8.422;2022-10-26T10:33:38;8.10;;;2.95;;
24044;SDS011;26257;49.442;8.422;2022-10-26T10:36:06;7.10;;;3.00;;
24044;SDS011;26257;49.442;8.422;2022-10-26T10:38:38;8.13;;;2.38;;
24044;SDS011;26257;49.442;8.422;2022-10-26T10:41:13;7.18;;;2.60;;
24044;SDS011;26257;49.442;8.422;2022-10-26T10:43:53;11.93;;;3.15;;
24044;SDS011;26257;49.442;8.422;2022-10-26T10:46:24;10.00;;;3.00;;
24044;SDS011;26257;49.442;8.422;2022-10-26T10:49:03;13.30;;;3.17;;
24044;SDS011;26257;49.442;8.422;2022-10-26T10:51:39;13.20;;;2.88;;
24044;SDS011;26257;49.442;8.422;2022-10-26T10:54:05;10.05;;;2.90;;
24044;SDS011;26257;49.442;8.422;2022-10-26T10:56:45;12.82;;;2.80;;
24044;SDS011;26257;49.442;8.422;2022-10-26T11:04:34;7.38;;;2.28;;
24044;SDS011;26257;49.442;8.422;2022-10-26T11:07:09;8.55;;;2.38;;
24044;SDS011;26257;49.442;8.422;2022-10-26T11:09:38;5.90;;;2.33;;
24044;SDS011;26257;49.442;8.422;2022-10-26T11:12:12;7.63;;;2.70;;
24044;SDS011;26257;49.442;8.422;2022-10-26T11:14:45;5.85;;;2.35;;
24044;SDS011;26257;49.442;8.422;2022-10-26T11:17:20;13.48;;;2.78;;
24044;SDS011;26257;49.442;8.422;2022-10-26T11:19:54;9.00;;;2.50;;
24044;SDS011;26257;49.442;8.422;2022-10-26T11:22:53;5.57;;;2.53;;
24044;SDS011;26257;49.442;8.422;2022-10-26T11:25:40;6.13;;;2.45;;
24044;SDS011;26257;49.442;8.422;2022-10-26T11:28:19;11.23;;;2.95;;
24044;SDS011;26257;49.442;8.422;2022-10-26T11:30:57;9.30;;;3.05;;
24044;SDS011;26257;49.442;8.422;2022-10-26T11:33:33;7.90;;;2.50;;
24044;SDS011;26257;49.442;8.422;2022-10-26T11:36:05;8.05;;;3.05;;
24044;SDS011;26257;49.442;8.422;2022-10-26T11:38:54;6.22;;;2.42;;
24044;SDS011;26257;49.442;8.422;2022-10-26T11:41:30;8.77;;;2.63;;
24044;SDS011;26257;49.442;8.422;2022-10-26T11:44:08;9.13;;;2.92;;
24044;SDS011;26257;49.442;8.422;2022-10-26T11:46:40;11.98;;;3.20;;
24044;SDS011;26257;49.442;8.422;2022-10-26T11:49:12;8.65;;;2.80;;
24044;SDS011;26257;49.442;8.422;2022-10-26T11:52:01;6.68;;;2.60;;
24044;SDS011;26257;49.442;8.422;2022-10-26T11:54:32;6.22;;;2.20;;
24044;SDS011;26257;49.442;8.422;2022-10-26T11:57:02;9.32;;;2.58;;
24044;SDS011;26257;49.442;8.422;2022-10-26T11:59:30;7.97;;;2.42;;
24044;SDS011;26257;49.442;8.422;2022-10-26T12:02:03;10.05;;;2.55;;
24044;SDS011;26257;49.442;8.422;2022-10-26T12:04:34;11.10;;;2.40;;
24044;SDS011;26257;49.442;8.422;2022-10-26T12:07:03;7.13;;;2.30;;
24044;SDS011;26257;49.442;8.422;2022-10-26T12:09:33;7.85;;;3.05;;
24044;SDS011;26257;49.442;8.422;2022-10-26T12:14:41;6.43;;;2.17;;
24044;SDS011;26257;49.442;8.422;2022-10-26T12:17:18;6.40;;;2.58;;
24044;SDS011;26257;49.442;8.422;2022-10-26T12:23:02;6.63;;;2.50;;
24044;SDS011;26257;49.442;8.422;2022-10-26T12:25:29;7.40;;;2.20;;
24044;SDS011;26257;49.442;8.422;2022-10-26T12:27:55;6.18;;;2.35;;
24044;SDS011;26257;49.442;8.422;2022-10-26T12:32:56;7.65;;;2.45;;
24044;SDS011;26257;49.442;8.422;2022-10-26T12:41:21;8.82;;;2.08;;
24044;SDS011;26257;49.442;8.422;2022-10-26T12:43:48;7.88;;;2.60;;
24044;SDS011;26257;49.442;8.422;2022-10-26T12:48:42;7.60;;;2.33;;
24044;SDS011;26257;49.442;8.422;2022-10-26T12:51:52;12.38;;;2.33;;
24044;SDS011;26257;49.442;8.422;2022-10-26T12:57:07;8.75;;;2.65;;
24044;SDS011;26257;49.442;8.422;2022-10-26T12:59:47;5.85;;;2.10;;
24044;SDS011;26257;49.442;8.422;2022-10-26T13:02:29;8.48;;;2.55;;
24044;SDS011;26257;49.442;8.422;2022-10-26T13:08:01;8.98;;;2.35;;
24044;SDS011;26257;49.442;8.422;2022-10-26T13:10:30;4.85;;;1.98;;
24044;SDS011;26257;49.442;8.422;2022-10-26T13:12:57;7.68;;;2.17;;
24044;SDS011;26257;49.442;8.422;2022-10-26T13:20:33;8.03;;;2.33;;
24044;SDS011;26257;49.442;8.422;2022-10-26T13:23:01;10.43;;;2.60;;
24044;SDS011;26257;49.442;8.422;2022-10-26T13:25:29;9.90;;;2.72;;
24044;SDS011;26257;49.442;8.422;2022-10-26T13:28:03;6.80;;;2.40;;
24044;SDS011;26257;49.442;8.422;2022-10-26T13:30:47;7.05;;;2.40;;
24044;SDS011;26257;49.442;8.422;2022-10-26T13:33:23;4.72;;;2.10;;
24044;SDS011;26257;49.442;8.422;2022-10-26T13:35:55;4.78;;;2.00;;
24044;SDS011;26257;49.442;8.422;2022-10-26T13:38:23;5.55;;;2.38;;
24044;SDS011;26257;49.442;8.422;2022-10-26T13:40:56;8.65;;;2.13;;
24044;SDS011;26257;49.442;8.422;2022-10-26T13:43:29;8.63;;;2.22;;
24044;SDS011;26257;49.442;8.422;2022-10-26T13:45:59;5.18;;;2.42;;
24044;SDS011;26257;49.442;8.422;2022-10-26T13:53:46;7.60;;;2.30;;
24044;SDS011;26257;49.442;8.422;2022-10-26T13:56:18;5.55;;;2.22;;
24044;SDS011;26257;49.442;8.422;2022-10-26T14:01:34;7.40;;;2.40;;
24044;SDS011;26257;49.442;8.422;2022-10-26T14:04:13;7.07;;;2.30;;
24044;SDS011;26257;49.442;8.422;2022-10-26T14:06:49;7.93;;;2.60;;
24044;SDS011;26257;49.442;8.422;2022-10-26T14:09:16;7.82;;;2.55;;
24044;SDS011;26257;49.442;8.422;2022-10-26T14:11:48;5.55;;;1.95;;
24044;SDS011;26257;49.442;8.422;2022-10-26T14:14:20;6.97;;;2.75;;
24044;SDS011;26257;49.442;8.422;2022-10-26T14:16:50;6.60;;;2.33;;
24044;SDS011;26257;49.442;8.422;2022-10-26T14:19:27;7.80;;;2.50;;
24044;SDS011;26257;49.442;8.422;2022-10-26T14:21:54;5.68;;;2.30;;
24044;SDS011;26257;49.442;8.422;2022-10-26T14:24:21;6.78;;;2.28;;
24044;SDS011;26257;49.442;8.422;2022-10-26T14:26:48;7.38;;;2.63;;
24044;SDS011;26257;49.442;8.422;2022-10-26T14:29:24;7.97;;;2.70;;
24044;SDS011;26257;49.442;8.422;2022-10-26T14:31:52;7.55;;;2.20;;
24044;SDS011;26257;49.442;8.422;2022-10-26T14:34:19;9.57;;;2.80;;
24044;SDS011;26257;49.442;8.422;2022-10-26T14:36:50;8.13;;;2.17;;
24044;SDS011;26257;49.442;8.422;2022-10-26T14:42:23;7.35;;;2.30;;
24044;SDS011;26257;49.442;8.422;2022-10-26T14:44:53;10.10;;;2.20;;
24044;SDS011;26257;49.442;8.422;2022-10-26T14:47:24;6.32;;;2.25;;
24044;SDS011;26257;49.442;8.422;2022-10-26T14:49:52;7.63;;;2.38;;
24044;SDS011;26257;49.442;8.422;2022-10-26T14:52:25;11.30;;;2.55;;
24044;SDS011;26257;49.442;8.422;2022-10-26T14:55:09;8.55;;;1.98;;
24044;SDS011;26257;49.442;8.422;2022-10-26T14:57:38;5.43;;;1.95;;
24044;SDS011;26257;49.442;8.422;2022-10-26T15:02:50;5.65;;;2.00;;
24044;SDS011;26257;49.442;8.422;2022-10-26T15:07:54;7.03;;;2.30;;
24044;SDS011;26257;49.442;8.422;2022-10-26T15:18:41;8.35;;;2.63;;
24044;SDS011;26257;49.442;8.422;2022-10-26T15:21:20;8.15;;;2.80;;
24044;SDS011;26257;49.442;8.422;2022-10-26T15:23:49;7.45;;;2.67;;
24044;SDS011;26257;49.442;8.422;2022-10-26T15:26:15;7.18;;;2.72;;
24044;SDS011;26257;49.442;8.422;2022-10-26T15:28:41;7.60;;;2.85;;
24044;SDS011;26257;49.442;8.422;2022-10-26T15:36:24;10.80;;;3.05;;
24044;SDS011;26257;49.442;8.422;2022-10-26T15:38:52;9.30;;;2.50;;
24044;SDS011;26257;49.442;8.422;2022-10-26T15:41:26;10.45;;;2.67;;
24044;SDS011;26257;49.442;8.422;2022-10-26T15:43:55;7.90;;;2.92;;
24044;SDS011;26257;49.442;8.422;2022-10-26T15:46:29;7.65;;;2.45;;
24044;SDS011;26257;49.442;8.422;2022-10-26T15:48:58;8.27;;;3.47;;
24044;SDS011;26257;49.442;8.422;2022-10-26T15:51:25;11.15;;;3.03;;
24044;SDS011;26257;49.442;8.422;2022-10-26T15:53:52;7.53;;;2.65;;
24044;SDS011;26257;49.442;8.422;2022-10-26T15:56:19;12.63;;;2.85;;
24044;SDS011;26257;49.442;8.422;2022-10-26T15:58:47;12.43;;;2.63;;
24044;SDS011;26257;49.442;8.422;2022-10-26T16:01:23;9.05;;;2.90;;
24044;SDS011;26257;49.442;8.422;2022-10-26T16:03:51;6.43;;;2.75;;
24044;SDS011;26257;49.442;8.422;2022-10-26T16:08:57;9.27;;;3.38;;
24044;SDS011;26257;49.442;8.422;2022-10-26T16:11:24;8.48;;;3.20;;
24044;SDS011;26257;49.442;8.422;2022-10-26T16:13:50;10.27;;;3.30;;
24044;SDS011;26257;49.442;8.422;2022-10-26T16:16:16;10.68;;;2.95;;
24044;SDS011;26257;49.442;8.422;2022-10-26T16:18:43;10.40;;;2.90;;
24044;SDS011;26257;49.442;8.422;2022-10-26T16:21:12;9.82;;;3.63;;
24044;SDS011;26257;49.442;8.422;2022-10-26T16:23:39;6.50;;;3.00;;
24044;SDS011;26257;49.442;8.422;2022-10-26T16:26:05;6.43;;;2.97;;
24044;SDS011;26257;49.442;8.422;2022-10-26T16:28:31;7.72;;;3.30;;
24044;SDS011;26257;49.442;8.422;2022-10-26T16:30:57;13.30;;;3.80;;
24044;SDS011;26257;49.442;8.422;2022-10-26T16:33:30;12.07;;;3.38;;
24044;SDS011;26257;49.442;8.422;2022-10-26T16:35:56;12.43;;;4.38;;
24044;SDS011;26257;49.442;8.422;2022-10-26T16:38:23;10.55;;;3.20;;
24044;SDS011;26257;49.442;8.422;2022-10-26T16:40:49;9.23;;;2.97;;
24044;SDS011;26257;49.442;8.422;2022-10-26T16:43:14;10.50;;;3.30;;
24044;SDS011;26257;49.442;8.422;2022-10-26T16:45:40;9.10;;;3.40;;
24044;SDS011;26257;49.442;8.422;2022-10-26T16:48:07;13.40;;;3.90;;
24044;SDS011;26257;49.442;8.422;2022-10-26T16:50:38;9.00;;;3.42;;
24044;SDS011;26257;49.442;8.422;2022-10-26T16:53:04;11.05;;;3.92;;
24044;SDS011;26257;49.442;8.422;2022-10-26T16:55:29;11.85;;;3.60;;
24044;SDS011;26257;49.442;8.422;2022-10-26T16:57:54;22.88;;;12.73;;
24044;SDS011;26257;49.442;8.422;2022-10-26T17:00:20;13.73;;;5.90;;
24044;SDS011;26257;49.442;8.422;2022-10-26T17:02:45;12.93;;;4.10;;
24044;SDS011;26257;49.442;8.422;2022-10-26T17:05:10;15.85;;;4.00;;
24044;SDS011;26257;49.442;8.422;2022-10-26T17:07:36;10.98;;;4.43;;
24044;SDS011;26257;49.442;8.422;2022-10-26T17:10:01;10.23;;;3.45;;
24044;SDS011;26257;49.442;8.422;2022-10-26T17:12:28;12.77;;;3.50;;
24044;SDS011;26257;49.442;8.422;2022-10-26T17:14:53;9.85;;;3.47;;
24044;SDS011;26257;49.442;8.422;2022-10-26T17:17:20;6.88;;;3.42;;
24044;SDS011;26257;49.442;8.422;2022-10-26T17:19:45;9.68;;;3.45;;
24044;SDS011;26257;49.442;8.422;2022-10-26T17:22:11;6.75;;;2.90;;
24044;SDS011;26257;49.442;8.422;2022-10-26T17:24:36;7.82;;;3.50;;
24044;SDS011;26257;49.442;8.422;2022-10-26T17:27:02;10.25;;;3.45;;
24044;SDS011;26257;49.442;8.422;2022-10-26T17:29:27;9.68;;;3.38;;
24044;SDS011;26257;49.442;8.422;2022-10-26T17:31:53;8.75;;;3.15;;
24044;SDS011;26257;49.442;8.422;2022-10-26T17:34:19;7.10;;;3.22;;
24044;SDS011;26257;49.442;8.422;2022-10-26T17:36:44;18.13;;;4.63;;
24044;SDS011;26257;49.442;8.422;2022-10-26T17:39:09;12.18;;;4.22;;
24044;SDS011;26257;49.442;8.422;2022-10-26T17:41:35;10.20;;;3.10;;
24044;SDS011;26257;49.442;8.422;2022-10-26T17:44:00;11.75;;;3.90;;
24044;SDS011;26257;49.442;8.422;2022-10-26T17:46:26;7.43;;;3.33;;
24044;SDS011;26257;49.442;8.422;2022-10-26T17:48:52;10.75;;;3.53;;
24044;SDS011;26257;49.442;8.422;2022-10-26T17:51:22;6.90;;;3.50;;